Time;durP1;ratioP1;P1;durP2;ratioP2;P2;SDS_P1;SDS_P2;PMS_P1;PMS_P2;Temp;Humidity;BMP_temperature;BMP_pressure;BME280_temperature;BME280_humidity;BME280_pressure;Samples;Min_cycle;Max_cycle;Signal;HPM_P1;HPM_P2
2021/06/17 00:03:06;;;;;;;;;;;;;;;24.98;47.96;99789.28;10362823;28;20128;-51
2021/06/17 00:08:09;;;;;;;4.82;3.63;;;;;;;24.93;47.78;99791.03;10365757;28;20365;-51
2021/06/17 00:13:33;;;;;;;4.50;4.00;;;;;;;24.88;47.95;99791.72;10369033;28;20072;-51
2021/06/17 00:18:35;;;;;;;4.45;4.05;;;;;;;24.82;47.99;99787.19;10375507;28;20119;-51
2021/06/17 00:23:36;;;;;;;5.40;4.20;;;;;;;24.76;48.20;99785.41;10368679;28;20131;-51
2021/06/17 00:28:37;;;;;;;3.85;3.47;;;;;;;24.70;48.10;99779.78;10367179;28;20137;-51
2021/06/17 00:33:39;;;;;;;4.32;3.88;;;;;;;24.66;48.37;99773.13;10369330;28;20084;-50
2021/06/17 00:38:40;;;;;;;5.40;4.05;;;;;;;24.64;48.44;99779.88;10367821;28;20499;-50
2021/06/17 00:43:42;;;;;;;4.97;4.05;;;;;;;24.60;48.53;99781.38;10369781;28;20455;-51
2021/06/17 00:48:43;;;;;;;4.38;4.00;;;;;;;24.58;48.70;99781.63;10351190;28;20868;-54
2021/06/17 00:53:45;;;;;;;4.00;3.60;;;;;;;24.55;48.46;99784.75;10365448;28;20467;-51
2021/06/17 00:58:46;;;;;;;6.43;3.72;;;;;;;24.52;48.67;99780.59;10362569;28;20041;-50
2021/06/17 01:03:48;;;;;;;4.40;4.00;;;;;;;24.48;48.49;99779.38;10364716;28;20745;-50
2021/06/17 01:09:10;;;;;;;5.57;4.50;;;;;;;24.34;48.71;99765.09;10362245;28;20076;-51
2021/06/17 01:14:29;;;;;;;4.90;4.32;;;;;;;24.42;49.29;99763.16;10361388;28;20095;-50
2021/06/17 01:19:31;;;;;;;4.93;4.10;;;;;;;24.39;48.99;99761.72;10366793;28;20140;-51
2021/06/17 01:25:02;;;;;;;4.68;4.28;;;;;;;24.33;48.84;99759.91;10366735;28;20074;-50
2021/06/17 01:30:13;;;;;;;4.95;4.47;;;;;;;24.27;49.24;99742.59;10365098;28;20062;-51
2021/06/17 01:35:17;;;;;;;4.38;3.97;;;;;;;24.22;49.14;99739.72;10378421;28;20068;-50
2021/06/17 01:40:19;;;;;;;4.43;4.03;;;;;;;24.13;49.22;99730.22;10366873;28;20711;-51
2021/06/17 01:45:23;;;;;;;5.35;4.45;;;;;;;24.15;49.27;99739.78;10370254;28;20221;-51
2021/06/17 01:50:27;;;;;;;6.95;4.50;;;;;;;24.09;49.43;99740.69;10362131;28;20100;-51
2021/06/17 01:55:31;;;;;;;4.57;3.95;;;;;;;24.06;49.45;99740.31;10368933;28;20060;-50
2021/06/17 02:00:36;;;;;;;4.93;4.43;;;;;;;24.02;49.81;99733.66;10354410;28;20073;-51
2021/06/17 02:05:38;;;;;;;4.60;4.05;;;;;;;23.99;49.84;99745.84;10363741;28;20057;-54
2021/06/17 02:10:40;;;;;;;4.60;4.20;;;;;;;23.96;50.10;99744.38;10364782;28;20065;-50
2021/06/17 02:15:44;;;;;;;5.60;4.93;;;;;;;23.90;50.38;99739.84;10363784;28;20133;-50
2021/06/17 02:20:46;;;;;;;4.28;3.97;;;;;;;23.85;50.83;99745.09;10354887;28;20868;-51
2021/06/17 02:25:52;;;;;;;5.85;4.65;;;;;;;23.78;51.03;99742.44;10356971;28;20132;-50
2021/06/17 02:30:58;;;;;;;4.75;4.38;;;;;;;23.72;51.75;99747.91;10365475;28;20565;-52
2021/06/17 02:36:00;;;;;;;5.03;4.60;;;;;;;23.67;51.72;99747.75;10374178;28;20045;-53
2021/06/17 02:41:08;;;;;;;5.65;4.97;;;;;;;23.59;52.15;99743.44;10374661;28;20049;-49
2021/06/17 02:46:10;;;;;;;5.30;4.90;;;;;;;23.57;52.25;99738.22;10379860;28;20065;-49
2021/06/17 02:51:11;;;;;;;5.70;5.10;;;;;;;23.54;52.04;99749.53;10367962;28;20045;-50
2021/06/17 02:56:23;;;;;;;5.32;4.80;;;;;;;23.44;52.53;99738.31;10377689;28;20139;-49
2021/06/17 03:01:29;;;;;;;5.53;5.03;;;;;;;23.48;52.61;99753.13;10375210;28;20065;-49
2021/06/17 03:06:35;;;;;;;6.93;4.88;;;;;;;23.42;52.61;99762.13;10375847;28;20125;-49
2021/06/17 03:11:40;;;;;;;5.13;4.70;;;;;;;23.28;52.77;99773.13;10370047;28;20060;-51
2021/06/17 03:16:45;;;;;;;6.00;5.50;;;;;;;23.27;53.60;99763.28;10370275;28;20065;-52
2021/06/17 03:21:52;;;;;;;5.50;4.93;;;;;;;23.29;53.38;99761.19;10379142;28;20073;-49
2021/06/17 03:26:56;;;;;;;5.80;5.05;;;;;;;23.22;53.08;99735.13;10381733;28;20065;-54
2021/06/17 03:31:59;;;;;;;4.95;4.55;;;;;;;23.29;53.38;99753.03;10357100;28;20111;-52
2021/06/17 03:37:01;;;;;;;5.88;5.18;;;;;;;23.27;53.33;99749.72;10359819;28;20480;-52
2021/06/17 03:42:05;;;;;;;6.03;5.43;;;;;;;23.23;53.81;99753.91;10357192;28;20100;-55
2021/06/17 03:47:08;;;;;;;5.65;5.15;;;;;;;23.17;54.30;99764.84;10361036;28;20153;-51
2021/06/17 03:52:12;;;;;;;5.77;5.03;;;;;;;23.14;54.58;99768.00;10356696;28;20046;-52
2021/06/17 03:57:18;;;;;;;6.65;5.30;;;;;;;23.10;55.16;99773.00;10367180;28;20109;-55
2021/06/17 04:02:20;;;;;;;5.65;5.22;;;;;;;23.06;55.40;99767.16;10371891;28;20495;-52
2021/06/17 04:07:24;;;;;;;5.95;5.45;;;;;;;23.02;55.73;99773.25;10371589;28;20103;-50
2021/06/17 04:12:29;;;;;;;6.05;5.50;;;;;;;23.04;55.91;99771.94;10352581;28;20065;-51
2021/06/17 04:17:43;;;;;;;11.30;6.65;;;;;;;22.87;55.68;99749.09;10380842;28;20479;-49
2021/06/17 04:22:47;;;;;;;5.10;4.70;;;;;;;23.04;55.24;99776.56;10373442;28;20726;-49
2021/06/17 04:27:52;;;;;;;6.93;5.28;;;;;;;23.06;55.13;99777.16;10366760;28;20115;-53
2021/06/17 04:32:56;;;;;;;5.70;5.20;;;;;;;23.06;54.47;99780.72;10374593;28;20461;-48
2021/06/17 04:37:59;;;;;;;7.32;4.90;;;;;;;23.13;54.58;99802.41;10360061;28;20458;-51
2021/06/17 04:43:01;;;;;;;7.57;6.85;;;;;;;23.17;53.99;99808.28;10361857;28;20100;-53
2021/06/17 04:48:08;;;;;;;5.85;5.35;;;;;;;23.22;53.65;99811.16;10370808;28;20073;-50
2021/06/17 04:53:18;;;;;;;4.95;4.50;;;;;;;23.27;53.68;99812.16;10368514;28;20075;-53
2021/06/17 04:58:21;;;;;;;5.75;4.78;;;;;;;23.32;52.81;99805.25;10371940;28;20115;-51
2021/06/17 05:03:23;;;;;;;4.85;4.40;;;;;;;23.36;52.55;99803.75;10358962;28;20053;-56
2021/06/17 05:13:31;;;;;;;5.72;4.78;;;;;;;23.48;52.75;99813.72;10364906;28;20077;-58
2021/06/17 05:18:32;;;;;;;9.93;5.97;;;;;;;23.51;52.31;99798.88;10367380;28;20073;-56
2021/06/17 05:23:38;;;;;;;5.70;5.00;;;;;;;23.61;52.42;99793.75;10354417;28;20467;-55
2021/06/17 05:28:40;;;;;;;5.13;4.72;;;;;;;23.70;52.32;99798.94;10359510;28;20077;-55
2021/06/17 05:33:43;;;;;;;9.70;5.32;;;;;;;23.73;52.28;99801.19;10349519;28;20072;-54
2021/06/17 05:38:45;;;;;;;9.82;5.05;;;;;;;23.73;52.25;99795.78;10330868;28;20135;-56
2021/06/17 05:43:46;;;;;;;9.15;4.90;;;;;;;23.86;52.45;99801.13;10349624;28;20069;-55
2021/06/17 05:48:48;;;;;;;6.60;5.50;;;;;;;23.99;52.36;99806.47;10363275;28;20072;-58
2021/06/17 05:53:49;;;;;;;7.38;5.43;;;;;;;24.03;52.07;99789.69;10364884;28;20132;-57
2021/06/17 05:58:50;;;;;;;6.18;4.90;;;;;;;24.21;51.87;99806.03;10373742;28;20072;-51
2021/06/17 06:03:53;;;;;;;6.10;5.28;;;;;;;24.29;51.74;99808.47;10354647;28;20073;-53
2021/06/17 06:08:54;;;;;;;6.50;4.23;;;;;;;24.27;51.62;99801.59;10346323;28;20407;-51
2021/06/17 06:13:56;;;;;;;6.38;5.65;;;;;;;24.38;51.41;99814.47;10330048;28;20037;-52
2021/06/17 06:18:57;;;;;;;9.45;5.10;;;;;;;24.51;51.47;99825.19;10344698;28;20495;-53
2021/06/17 06:24:00;;;;;;;4.93;4.03;;;;;;;24.62;51.30;99826.38;10339601;28;20137;-54
2021/06/17 06:29:02;;;;;;;6.88;5.97;;;;;;;24.83;51.07;99837.84;10339507;28;20125;-57
2021/06/17 06:34:04;;;;;;;5.05;4.55;;;;;;;25.05;50.31;99835.47;10339554;28;20160;-56
2021/06/17 06:39:05;;;;;;;5.35;4.35;;;;;;;25.14;50.18;99836.00;10339879;28;20050;-57
2021/06/17 06:44:07;;;;;;;5.45;4.75;;;;;;;25.24;49.15;99839.81;10342914;28;20192;-55
2021/06/17 06:49:08;;;;;;;8.95;5.03;;;;;;;25.34;49.07;99850.22;10349568;28;20064;-56
2021/06/17 06:54:10;;;;;;;7.90;5.18;;;;;;;25.66;48.27;99852.69;10349655;28;20053;-56
2021/06/17 06:59:12;;;;;;;5.53;4.82;;;;;;;25.80;47.82;99852.50;10345303;28;20121;-58
2021/06/17 07:04:13;;;;;;;7.22;4.93;;;;;;;25.96;47.29;99840.91;10345877;28;20129;-57
2021/06/17 07:09:14;;;;;;;5.85;4.50;;;;;;;26.04;46.76;99851.47;10350286;28;20133;-54
2021/06/17 07:14:16;;;;;;;6.22;4.53;;;;;;;26.31;46.33;99842.84;10329936;28;20073;-56
2021/06/17 07:19:18;;;;;;;6.13;4.60;;;;;;;26.63;45.11;99835.13;10349034;28;20080;-57
2021/06/17 07:24:19;;;;;;;6.00;4.15;;;;;;;26.69;45.61;99848.91;10359600;28;20064;-58
2021/06/17 07:29:21;;;;;;;6.45;4.35;;;;;;;26.84;44.47;99834.75;10337342;28;20057;-55
2021/06/17 07:34:23;;;;;;;5.13;4.55;;;;;;;27.08;43.71;99847.28;10357752;28;20127;-57
2021/06/17 07:39:24;;;;;;;5.30;4.20;;;;;;;27.12;42.51;99836.69;10352196;28;20208;-54
2021/06/17 07:44:26;;;;;;;3.97;3.58;;;;;;;27.33;43.31;99827.00;10357288;28;20839;-57
2021/06/17 07:49:27;;;;;;;4.97;4.20;;;;;;;27.71;42.36;99821.94;10353322;28;20504;-57
2021/06/17 07:54:29;;;;;;;6.18;4.18;;;;;;;27.92;41.63;99829.38;10353737;28;20115;-55
2021/06/17 07:59:30;;;;;;;4.90;4.30;;;;;;;28.24;41.07;99820.63;10355123;28;20740;-57
2021/06/17 08:04:31;;;;;;;7.80;4.07;;;;;;;28.28;40.40;99826.41;10356125;28;20080;-57
2021/06/17 08:09:33;;;;;;;6.95;3.95;;;;;;;28.59;40.54;99830.41;10352742;28;20069;-57
2021/06/17 08:14:34;;;;;;;8.63;5.00;;;;;;;28.76;39.57;99829.56;10356222;28;20190;-53
2021/06/17 08:19:36;;;;;;;6.50;3.47;;;;;;;29.06;39.65;99823.63;10368538;28;20107;-57
2021/06/17 08:24:45;;;;;;;5.35;4.05;;;;;;;29.39;38.84;99825.38;10366271;28;20148;-56
2021/06/17 08:29:47;;;;;;;6.00;3.97;;;;;;;29.47;39.08;99821.34;10370698;28;20490;-55
2021/06/17 08:34:48;;;;;;;6.10;3.70;;;;;;;29.66;36.99;99835.50;10368254;28;20077;-56
2021/06/17 08:39:53;;;;;;;4.93;3.63;;;;;;;29.80;36.84;99844.97;10364012;28;20053;-58
2021/06/17 08:44:56;;;;;;;6.38;3.55;;;;;;;29.97;36.77;99844.84;10364596;28;20331;-57
2021/06/17 08:50:00;;;;;;;4.40;3.30;;;;;;;30.19;35.74;99854.06;10363795;28;20042;-56
2021/06/17 08:55:14;;;;;;;4.40;3.80;;;;;;;30.15;34.88;99848.28;10363932;28;20073;-56
2021/06/17 09:00:19;;;;;;;4.97;4.05;;;;;;;30.22;35.96;99859.03;10361331;28;20043;-58
2021/06/17 09:05:21;;;;;;;4.28;3.78;;;;;;;30.58;35.17;99851.88;10362563;28;20049;-56
2021/06/17 09:10:23;;;;;;;5.53;4.10;;;;;;;30.57;35.38;99850.22;10362995;28;20091;-56
2021/06/17 09:15:32;;;;;;;3.70;3.40;;;;;;;30.85;34.92;99845.41;10356902;28;20200;-55
2021/06/17 09:20:34;;;;;;;5.40;3.85;;;;;;;31.20;34.87;99838.44;10332417;28;20514;-57
2021/06/17 09:25:45;;;;;;;;;;;;;;;31.59;33.75;99848.97;10353042;28;20136;-59
2021/06/17 09:30:46;;;;;;;5.18;3.28;;;;;;;31.59;34.17;99854.47;10333445;28;19949;-57
2021/06/17 09:35:51;;;;;;;6.57;3.58;;;;;;;31.87;34.08;99844.03;10353597;28;20045;-57
2021/06/17 09:40:53;;;;;;;3.88;3.30;;;;;;;32.08;32.45;99829.19;10347013;28;20049;-56
2021/06/17 09:45:59;;;;;;;;;;;;;;;32.32;32.05;99839.59;10349191;28;20132;-57
2021/06/17 09:51:33;;;;;;;3.78;2.70;;;;;;;32.64;31.70;99830.19;10349022;28;20436;-58
2021/06/17 09:56:36;;;;;;;4.55;3.40;;;;;;;32.67;30.44;99831.56;10330760;28;20566;-57
2021/06/17 10:01:45;;;;;;;5.15;3.13;;;;;;;32.60;30.53;99818.88;10348821;28;20258;-57
2021/06/17 10:06:47;;;;;;;3.15;2.80;;;;;;;32.87;30.31;99822.41;10345929;28;20046;-57
2021/06/17 10:11:49;;;;;;;6.05;3.33;;;;;;;33.33;29.82;99822.19;10348190;28;20167;-55
2021/06/17 10:16:52;;;;;;;3.38;3.10;;;;;;;33.47;29.77;99820.41;10357233;28;20065;-60
2021/06/17 10:21:53;;;;;;;6.50;2.78;;;;;;;33.73;29.38;99806.44;10359370;28;20045;-62
2021/06/17 10:26:56;;;;;;;;;;;;;;;34.03;29.55;99810.03;10347704;28;20147;-59
2021/06/17 10:31:58;;;;;;;5.30;3.40;;;;;;;34.40;29.51;99807.78;10362171;28;19987;-56
2021/06/17 10:37:20;;;;;;;5.90;3.15;;;;;;;34.22;28.46;99790.81;10364337;28;20127;-56
2021/06/17 10:42:24;;;;;;;4.82;3.13;;;;;;;33.92;29.14;99795.53;10362542;28;20148;-54
2021/06/17 10:47:38;;;;;;;116.53;21.38;;;;;;;34.16;29.06;99792.78;10362944;28;20136;-57
2021/06/17 10:58:41;;;;;;;3.50;3.20;;;;;;;34.73;28.42;99781.13;10572842;27;20344;-71
2021/06/17 11:03:43;;;;;;;3.72;3.50;;;;;;;35.03;28.09;99784.63;10505034;28;20518;-74
2021/06/17 11:08:44;;;;;;;5.15;3.60;;;;;;;35.21;28.29;99780.22;10507024;28;20086;-77
2021/06/17 11:13:48;;;;;;;8.00;3.97;;;;;;;35.23;28.52;99773.22;10510503;28;20056;-71
2021/06/17 11:19:04;;;;;;;4.32;3.38;;;;;;;35.06;29.12;99770.19;10547042;28;20048;-75
2021/06/17 11:24:13;;;;;;;6.03;3.25;;;;;;;35.05;28.23;99769.34;10508240;28;20068;-71
2021/06/17 11:29:20;;;;;;;4.82;3.20;;;;;;;35.39;29.14;99773.03;10512188;28;20646;-73
2021/06/17 11:34:33;;;;;;;4.03;2.75;;;;;;;35.53;26.64;99762.84;10506331;28;20592;-73
2021/06/17 11:39:35;;;;;;;4.18;2.97;;;;;;;35.57;27.09;99763.88;10509124;28;20118;-75
2021/06/17 11:44:36;;;;;;;5.38;3.25;;;;;;;35.75;26.56;99750.31;10509168;28;20418;-76
2021/06/17 11:49:40;;;;;;;3.30;2.95;;;;;;;35.70;26.36;99758.69;10505494;28;20053;-77
2021/06/17 11:54:43;;;;;;;3.22;2.95;;;;;;;35.60;26.44;99756.09;10506955;28;20131;-75
2021/06/17 11:59:49;;;;;;;5.85;3.60;;;;;;;35.69;26.28;99754.28;10488894;28;20044;-73
2021/06/17 12:05:00;;;;;;;4.07;3.15;;;;;;;35.79;27.05;99743.03;10500154;28;20136;-73
2021/06/17 12:10:11;;;;;;;5.78;3.30;;;;;;;35.90;26.36;99744.50;10473644;28;20509;-74
2021/06/17 12:15:22;;;;;;;4.15;3.25;;;;;;;35.84;25.75;99737.44;10473953;28;20135;-75
2021/06/17 12:20:27;;;;;;;3.47;3.10;;;;;;;35.69;26.49;99737.69;10467622;28;20155;-74
2021/06/17 12:25:36;;;;;;;4.13;3.30;;;;;;;35.84;26.16;99736.63;10477272;28;20151;-76
2021/06/17 12:30:38;;;;;;;4.57;3.15;;;;;;;35.88;27.03;99740.38;10476870;28;20041;-74
2021/06/17 12:35:57;;;;;;;4.63;2.83;;;;;;;35.88;25.78;99734.84;10477473;28;20178;-75
2021/06/17 12:41:17;;;;;;;3.65;2.97;;;;;;;35.97;25.77;99737.75;10479646;28;20101;-74
2021/06/17 12:46:24;;;;;;;4.77;3.33;;;;;;;35.72;25.26;99737.06;10484630;28;20056;-73
2021/06/17 12:56:54;;;;;;;4.43;3.03;;;;;;;35.77;24.95;99736.97;10481410;28;20064;-74
2021/06/17 13:01:56;;;;;;;5.85;4.47;;;;;;;35.86;25.93;99732.41;10480243;28;20048;-72
2021/06/17 13:06:59;;;;;;;5.65;3.17;;;;;;;35.85;26.00;99729.94;10478361;28;20063;-74
2021/06/17 13:12:24;;;;;;;3.33;2.90;;;;;;;35.90;25.47;99721.53;10472446;28;20623;-76
2021/06/17 13:17:26;;;;;;;3.92;3.30;;;;;;;35.62;25.60;99732.53;10475362;28;20141;-74
2021/06/17 13:22:28;;;;;;;6.50;3.70;;;;;;;35.45;25.90;99727.56;10476234;28;20063;-73
2021/06/17 13:27:29;;;;;;;4.10;3.70;;;;;;;35.37;26.32;99720.78;10475298;28;20208;-75
2021/06/17 13:32:31;;;;;;;4.32;3.55;;;;;;;35.49;26.38;99714.78;10480508;28;20127;-74
2021/06/17 13:37:33;;;;;;;4.05;3.53;;;;;;;35.53;26.03;99713.03;10475672;28;20256;-75
2021/06/17 13:42:34;;;;;;;4.97;2.85;;;;;;;35.46;26.61;99712.63;10476556;28;20567;-73
2021/06/17 13:47:36;;;;;;;4.00;3.70;;;;;;;35.40;26.53;99709.09;10476651;28;20045;-74
2021/06/17 13:52:37;;;;;;;4.45;3.53;;;;;;;35.34;26.65;99710.31;10477290;28;20048;-76
2021/06/17 13:57:38;;;;;;;4.38;3.28;;;;;;;35.32;26.86;99695.16;10463153;28;21378;-74
2021/06/17 14:02:41;;;;;;;6.05;3.03;;;;;;;35.25;26.58;99705.72;10456142;28;20658;-74
2021/06/17 14:07:44;;;;;;;4.57;3.80;;;;;;;35.07;27.00;99702.72;10467401;28;20167;-72
2021/06/17 14:12:47;;;;;;;4.03;3.60;;;;;;;35.00;26.94;99703.09;10474058;28;20072;-72
2021/06/17 14:17:48;;;;;;;4.68;3.17;;;;;;;35.03;27.05;99701.66;10470773;28;20040;-72
2021/06/17 14:22:50;;;;;;;5.00;3.08;;;;;;;34.97;26.68;99702.88;10469679;28;20132;-76
2021/06/17 14:27:52;;;;;;;7.15;3.83;;;;;;;34.80;27.12;99706.16;10471354;28;20152;-72
2021/06/17 14:32:55;;;;;;;4.93;3.80;;;;;;;34.82;27.24;99713.03;10472419;28;20059;-74
2021/06/17 14:37:57;;;;;;;5.38;3.38;;;;;;;34.77;27.01;99699.28;10475171;28;20099;-74
2021/06/17 14:42:59;;;;;;;4.45;3.60;;;;;;;34.73;27.47;99697.41;10465437;28;20048;-74
2021/06/17 14:48:00;;;;;;;4.63;3.22;;;;;;;34.71;27.32;99694.94;10469762;28;20417;-74
2021/06/17 14:53:02;;;;;;;5.15;3.58;;;;;;;34.49;27.50;99687.22;10476033;28;20044;-73
2021/06/17 14:58:03;;;;;;;4.20;3.88;;;;;;;34.45;27.70;99684.22;10463720;28;20047;-73
2021/06/17 15:03:05;;;;;;;4.65;4.15;;;;;;;34.49;27.33;99679.75;10470304;28;20059;-73
2021/06/17 15:08:07;;;;;;;4.68;3.50;;;;;;;34.45;27.77;99681.44;10477101;28;20444;-72
2021/06/17 15:13:08;;;;;;;;;;;;;;;34.56;27.37;99684.06;10472927;28;20052;-73
2021/06/17 15:18:12;;;;;;;5.53;4.40;;;;;;;34.55;28.11;99685.22;10470324;28;20056;-74
2021/06/17 15:23:13;;;;;;;5.45;4.43;;;;;;;34.46;28.30;99674.00;10478483;28;20557;-74
2021/06/17 15:28:15;;;;;;;;;;;;;;;34.40;28.23;99686.25;10478027;28;20458;-73
2021/06/17 15:33:16;;;;;;;4.63;4.05;;;;;;;34.33;28.41;99673.59;10481364;28;20055;-72
2021/06/17 15:38:18;;;;;;;11.80;4.85;;;;;;;34.21;28.81;99684.22;10471307;28;20060;-74
2021/06/17 15:43:19;;;;;;;;;;;;;;;34.11;29.06;99679.66;10478112;28;20044;-73
2021/06/17 15:48:21;;;;;;;5.45;4.68;;;;;;;34.04;29.44;99673.66;10484045;28;19970;-71
2021/06/17 15:53:22;;;;;;;5.47;4.90;;;;;;;33.94;29.98;99668.25;10484295;28;20075;-72
2021/06/17 15:58:24;;;;;;;5.72;5.05;;;;;;;33.91;30.41;99672.41;10492895;28;20490;-70
2021/06/17 16:03:25;;;;;;;6.70;5.03;;;;;;;33.91;30.67;99680.69;10503149;28;20064;-74
2021/06/17 16:08:27;;;;;;;;;;;;;;;33.78;30.85;99682.22;10520829;28;20078;-76
2021/06/17 16:13:28;;;;;;;6.45;5.85;;;;;;;33.62;31.66;99673.25;10498545;28;19931;-75
2021/06/17 16:18:29;;;;;;;;;;;;;;;33.56;31.46;99679.13;10477496;28;20048;-71
2021/06/17 16:23:31;;;;;;;7.85;5.55;;;;;;;33.52;31.98;99672.53;10479041;28;19924;-71
2021/06/17 16:28:33;;;;;;;5.93;5.38;;;;;;;33.42;31.95;99668.75;10473405;28;20100;-74
2021/06/17 16:33:35;;;;;;;7.15;5.68;;;;;;;33.39;31.90;99668.50;10469461;28;20170;-73
2021/06/17 16:38:36;;;;;;;8.13;6.43;;;;;;;33.39;31.64;99661.06;10472178;28;20091;-72
2021/06/17 16:43:38;;;;;;;6.72;6.03;;;;;;;33.28;32.00;99651.22;10465959;28;20060;-72
2021/06/17 16:48:39;;;;;;;7.50;5.40;;;;;;;33.36;31.91;99656.13;10458589;28;20076;-73
2021/06/17 16:53:42;;;;;;;5.35;4.78;;;;;;;33.36;31.51;99647.03;10453681;28;20048;-74
2021/06/17 16:58:46;;;;;;;5.95;5.43;;;;;;;33.34;31.34;99647.31;10494716;28;20045;-74
2021/06/17 17:03:48;;;;;;;5.78;5.30;;;;;;;33.23;31.52;99643.00;10500029;28;20056;-72
2021/06/17 17:08:54;;;;;;;6.43;5.85;;;;;;;33.16;32.14;99642.50;10478900;28;20056;-72
2021/06/17 17:13:55;;;;;;;5.35;4.95;;;;;;;33.06;32.10;99633.19;10479995;28;20127;-72
2021/06/17 17:18:57;;;;;;;6.65;5.25;;;;;;;33.09;31.21;99648.34;10484572;28;20131;-73
2021/06/17 17:23:58;;;;;;;;;;;;;;;33.07;31.38;99645.88;10483135;28;20144;-73
2021/06/17 17:29:00;;;;;;;5.20;4.70;;;;;;;33.01;31.11;99658.03;10454387;28;20030;-73
2021/06/17 17:34:01;;;;;;;5.95;5.45;;;;;;;32.91;30.66;99658.13;10469729;28;20087;-73
2021/06/17 17:39:04;;;;;;;6.15;5.50;;;;;;;32.85;31.04;99671.13;10463689;28;20136;-74
2021/06/17 17:44:06;;;;;;;5.75;4.85;;;;;;;32.74;31.22;99664.84;10476859;28;20130;-72
2021/06/17 17:49:08;;;;;;;5.75;5.10;;;;;;;32.67;31.23;99669.84;10471446;28;20283;-73
2021/06/17 17:54:10;;;;;;;5.90;5.30;;;;;;;32.56;31.77;99673.72;10477521;28;20129;-73
2021/06/17 17:59:11;;;;;;;6.15;5.53;;;;;;;32.46;32.00;99671.88;10458258;28;20224;-73
2021/06/17 18:04:13;;;;;;;8.60;5.82;;;;;;;32.38;32.01;99669.69;10475748;28;20044;-71
2021/06/17 18:09:15;;;;;;;7.20;6.60;;;;;;;32.33;31.89;99673.31;10487108;28;20097;-73
2021/06/17 18:14:17;;;;;;;6.47;5.88;;;;;;;32.27;31.91;99677.19;10471836;28;20057;-72
2021/06/17 18:19:19;;;;;;;;;;;;;;;32.19;32.27;99680.53;10485171;28;20625;-73
2021/06/17 18:24:21;;;;;;;6.03;5.37;;;;;;;32.13;32.66;99678.88;10472219;28;20073;-72
2021/06/17 18:29:22;;;;;;;;;;;;;;;32.05;32.31;99681.09;10466162;28;20382;-74
2021/06/17 18:34:24;;;;;;;6.95;5.45;;;;;;;31.97;32.29;99684.41;10475243;28;19928;-73
2021/06/17 18:39:25;;;;;;;6.60;5.55;;;;;;;31.89;32.53;99687.75;10470836;28;20129;-72
2021/06/17 18:44:27;;;;;;;;;;;;;;;31.82;32.59;99681.72;10469095;28;20041;-70
2021/06/17 18:49:28;;;;;;;16.25;5.50;;;;;;;31.73;32.80;99682.28;10471319;28;19931;-72
2021/06/17 18:54:36;;;;;;;6.97;6.25;;;;;;;31.62;33.41;99677.91;10467902;28;20044;-72
2021/06/17 18:59:39;;;;;;;7.90;6.03;;;;;;;31.56;33.74;99684.50;10467720;28;20067;-70
2021/06/17 19:04:44;;;;;;;7.75;5.20;;;;;;;31.47;34.05;99697.16;10473599;28;20072;-71
2021/06/17 19:09:50;;;;;;;8.10;6.18;;;;;;;31.41;34.66;99699.06;10478781;28;20122;-72
2021/06/17 19:14:52;;;;;;;7.10;6.40;;;;;;;31.29;34.80;99707.59;10469549;28;20102;-73
2021/06/17 19:19:55;;;;;;;6.13;5.13;;;;;;;31.12;35.04;99696.03;10469291;28;20127;-74
2021/06/17 19:24:57;;;;;;;5.43;4.90;;;;;;;31.02;35.50;99713.34;10469221;28;20666;-73
2021/06/17 19:29:58;;;;;;;6.03;4.30;;;;;;;30.90;35.80;99721.81;10482255;28;20059;-71
2021/06/17 19:35:00;;;;;;;4.17;3.87;;;;;;;30.78;35.82;99723.97;10485296;28;20087;-72
2021/06/17 19:40:01;;;;;;;4.27;3.97;;;;;;;30.65;35.70;99719.81;10477910;28;20075;-72
2021/06/17 19:45:07;;;;;;;5.03;4.05;;;;;;;30.57;35.59;99736.81;10512282;28;20202;-73
2021/06/17 19:50:09;;;;;;;4.15;3.60;;;;;;;30.48;35.74;99731.03;10477224;28;20045;-73
2021/06/17 19:55:20;;;;;;;5.63;3.50;;;;;;;30.42;35.71;99735.66;10480788;28;20059;-72
2021/06/17 20:00:23;;;;;;;5.88;4.97;;;;;;;30.30;35.80;99730.34;10481806;28;20050;-74
2021/06/17 20:05:24;;;;;;;4.38;3.97;;;;;;;30.26;36.24;99742.13;10472832;28;20128;-73
2021/06/17 20:10:26;;;;;;;4.55;4.15;;;;;;;30.22;36.21;99744.59;10470658;28;20151;-72
2021/06/17 20:15:27;;;;;;;6.17;4.00;;;;;;;30.16;36.50;99751.13;10469687;28;20871;-72
2021/06/17 20:20:30;;;;;;;4.93;4.13;;;;;;;30.10;36.42;99752.19;10474006;28;21033;-74
2021/06/17 20:25:33;;;;;;;4.50;4.10;;;;;;;30.06;36.97;99753.84;10471444;28;20052;-74
2021/06/17 20:30:34;;;;;;;6.95;4.50;;;;;;;29.95;36.74;99752.91;10470291;28;20135;-72
2021/06/17 20:35:35;;;;;;;9.83;4.40;;;;;;;29.93;37.22;99758.66;10464834;28;20068;-72
2021/06/17 20:40:37;;;;;;;5.27;4.10;;;;;;;29.82;37.72;99750.66;10471650;28;20156;-71
2021/06/17 20:45:38;;;;;;;5.50;4.53;;;;;;;29.75;38.26;99756.31;10466101;28;20665;-73
2021/06/17 20:50:44;;;;;;;5.65;4.53;;;;;;;29.65;39.17;99762.56;10472514;28;20048;-73
2021/06/17 20:55:46;;;;;;;5.50;4.57;;;;;;;29.57;39.41;99765.78;10465254;28;20538;-73
2021/06/17 21:00:47;;;;;;;6.00;5.50;;;;;;;29.50;39.40;99766.00;10468372;28;20513;-72
2021/06/17 21:05:49;;;;;;;5.72;5.13;;;;;;;29.41;39.85;99753.84;10470260;28;20103;-73
2021/06/17 21:10:51;;;;;;;6.45;5.35;;;;;;;29.31;40.20;99756.50;10468129;28;20068;-73
2021/06/17 21:15:53;;;;;;;5.68;5.03;;;;;;;29.21;40.37;99768.19;10460538;28;20068;-72
2021/06/17 21:20:55;;;;;;;6.47;5.05;;;;;;;29.12;40.44;99767.78;10463607;28;20108;-73
2021/06/17 21:25:56;;;;;;;3.95;3.63;;;;;;;29.02;40.56;99778.63;10465574;28;20063;-72
2021/06/17 21:30:57;;;;;;;3.67;3.10;;;;;;;28.90;40.45;99776.88;10450974;28;20076;-73
2021/06/17 21:35:59;;;;;;;4.77;4.37;;;;;;;28.83;40.78;99773.50;10454086;28;20131;-73
2021/06/17 21:41:00;;;;;;;5.40;4.90;;;;;;;28.72;41.47;99782.72;10458329;28;20502;-71
2021/06/17 21:46:02;;;;;;;5.10;4.45;;;;;;;28.63;41.41;99779.59;10491203;28;20090;-72
2021/06/17 21:51:04;;;;;;;4.93;4.43;;;;;;;28.54;41.57;99787.38;10455009;28;20052;-73
2021/06/17 21:56:06;;;;;;;4.63;4.20;;;;;;;28.46;41.68;99782.31;10453263;28;20092;-72
2021/06/17 22:01:07;;;;;;;5.68;4.10;;;;;;;28.44;41.85;99783.69;10453372;28;20067;-73
2021/06/17 22:06:08;;;;;;;5.20;4.47;;;;;;;28.37;41.70;99792.06;10449177;28;20491;-73
2021/06/17 22:11:10;;;;;;;4.20;3.90;;;;;;;28.27;41.64;99791.91;10455004;28;20153;-73
2021/06/17 22:16:11;;;;;;;5.28;4.63;;;;;;;28.21;42.11;99797.31;10452638;28;20097;-72
2021/06/17 22:21:13;;;;;;;4.50;4.00;;;;;;;28.16;42.19;99794.50;10486541;28;20124;-72
2021/06/17 22:26:15;;;;;;;4.67;4.27;;;;;;;28.08;42.19;99802.31;10451535;28;20072;-73
2021/06/17 22:31:17;;;;;;;5.65;5.13;;;;;;;28.01;42.63;99810.69;10455349;28;20068;-73
2021/06/17 22:36:19;;;;;;;5.47;4.97;;;;;;;27.61;43.43;99806.16;10456174;28;20040;-73
2021/06/17 22:41:20;;;;;;;6.38;4.70;;;;;;;27.52;44.03;99819.44;10450149;28;20144;-74
2021/06/17 22:46:22;;;;;;;4.70;4.20;;;;;;;27.52;44.04;99814.78;10446429;28;20068;-74
2021/06/17 22:51:24;;;;;;;6.50;5.77;;;;;;;27.37;44.35;99821.88;10449174;28;20074;-74
2021/06/17 22:56:25;;;;;;;4.70;4.35;;;;;;;27.39;44.73;99825.19;10452674;28;20464;-74
2021/06/17 23:01:27;;;;;;;4.82;4.43;;;;;;;27.37;44.88;99832.78;10450955;28;20481;-73
2021/06/17 23:06:28;;;;;;;5.10;4.63;;;;;;;27.29;44.56;99837.56;10455858;28;20121;-74
2021/06/17 23:11:30;;;;;;;5.30;4.80;;;;;;;27.27;45.02;99833.41;10452135;28;20487;-74
2021/06/17 23:16:31;;;;;;;5.20;4.50;;;;;;;27.21;44.82;99823.47;10459433;28;20505;-74
2021/06/17 23:21:33;;;;;;;4.88;4.45;;;;;;;27.16;45.32;99838.69;10458000;28;20139;-74
2021/06/17 23:26:35;;;;;;;4.57;3.92;;;;;;;27.13;45.30;99839.16;10451367;28;20087;-75
2021/06/17 23:31:36;;;;;;;5.10;4.70;;;;;;;26.97;45.46;99834.47;10460232;28;20062;-74
2021/06/17 23:36:38;;;;;;;5.13;4.72;;;;;;;26.92;45.78;99832.47;10456783;28;20563;-74
2021/06/17 23:41:40;;;;;;;4.93;4.38;;;;;;;26.71;46.53;99828.47;10451925;28;20126;-72
2021/06/17 23:46:41;;;;;;;5.93;4.60;;;;;;;26.76;46.76;99822.31;10458169;28;20211;-73
2021/06/17 23:51:43;;;;;;;5.13;4.28;;;;;;;26.79;46.79;99816.34;10445290;28;20507;-74
2021/06/17 23:56:44;;;;;;;4.38;4.07;;;;;;;26.78;46.73;99810.06;10446319;28;20077;-74
